Aviation Digital Data Service (ADDS)

Output produced by METARs form (2052 UTC 24 June 2018)
found at http://www.aviationweather.gov/adds/metars/
 
METAR text: KUAO 241953Z 04004KT 10SM CLR 26/14 A2991 RMK AO2 SLP125 T02610144
Conditions at: KUAO (AURORA , OR, US) observed 1953 UTC 24 June 2018
Temperature: 26.1°C (79°F)
Dewpoint: 14.4°C (58°F) [RH = 49%]
Pressure (altimeter): 29.91 inches Hg (1013.0 mb)
[Sea-level pressure: 1012.5 mb]
Winds: from the NE (40 degrees) at 5 MPH (4 knots; 2.1 m/s)
Visibility: 10 or more miles (16+ km)
Ceiling: at least 12,000 feet AGL
Clouds: sky clear below 12,000 feet AGL
Weather: no significant weather observed at this time

METAR text: KUAO 241853Z 00000KT 10SM CLR 24/14 A2993 RMK AO2 SLP134 T02390139
Conditions at: KUAO (AURORA , OR, US) observed 1853 UTC 24 June 2018
Temperature: 23.9°C (75°F)
Dewpoint: 13.9°C (57°F) [RH = 54%]
Pressure (altimeter): 29.93 inches Hg (1013.6 mb)
[Sea-level pressure: 1013.4 mb]
Winds: calm
Visibility: 10 or more miles (16+ km)
Ceiling: at least 12,000 feet AGL
Clouds: sky clear below 12,000 feet AGL
Weather: no significant weather observed at this time